sensor_id;sensor_type;location;lat;lon;timestamp;pressure;altitude;pressure_sealevel;temperature
61189;BMP280;47054;39.716;2.904;2023-05-10T00:02:13;100514.59;;;27.25
61189;BMP280;47054;39.716;2.904;2023-05-10T00:04:57;100513.81;;;27.25
61189;BMP280;47054;39.716;2.904;2023-05-10T00:07:42;100511.09;;;27.25
61189;BMP280;47054;39.716;2.904;2023-05-10T00:10:29;100500.97;;;27.25
61189;BMP280;47054;39.716;2.904;2023-05-10T00:13:13;100494.00;;;27.24
61189;BMP280;47054;39.716;2.904;2023-05-10T00:15:58;100493.22;;;27.24
61189;BMP280;47054;39.716;2.904;2023-05-10T00:18:42;100498.25;;;27.25
61189;BMP280;47054;39.716;2.904;2023-05-10T00:21:27;100494.31;;;27.26
61189;BMP280;47054;39.716;2.904;2023-05-10T00:24:12;100493.59;;;27.26
61189;BMP280;47054;39.716;2.904;2023-05-10T00:26:57;100479.97;;;27.26
61189;BMP280;47054;39.716;2.904;2023-05-10T00:29:42;100479.97;;;27.26
61189;BMP280;47054;39.716;2.904;2023-05-10T00:32:26;100471.03;;;27.25
61189;BMP280;47054;39.716;2.904;2023-05-10T00:35:13;100477.97;;;27.26
61189;BMP280;47054;39.716;2.904;2023-05-10T00:37:58;100466.34;;;27.26
61189;BMP280;47054;39.716;2.904;2023-05-10T00:40:42;100469.09;;;27.26
61189;BMP280;47054;39.716;2.904;2023-05-10T00:43:34;100465.59;;;27.25
61189;BMP280;47054;39.716;2.904;2023-05-10T00:46:18;100466.34;;;27.26
61189;BMP280;47054;39.716;2.904;2023-05-10T00:49:03;100472.53;;;27.26
61189;BMP280;47054;39.716;2.904;2023-05-10T00:51:48;100470.25;;;27.25
61189;BMP280;47054;39.716;2.904;2023-05-10T00:54:33;100476.78;;;27.27
61189;BMP280;47054;39.716;2.904;2023-05-10T00:57:18;100463.63;;;27.26
61189;BMP280;47054;39.716;2.904;2023-05-10T01:00:03;100460.91;;;27.26
61189;BMP280;47054;39.716;2.904;2023-05-10T01:02:49;100463.94;;;27.28
61189;BMP280;47054;39.716;2.904;2023-05-10T01:05:34;100451.19;;;27.25
61189;BMP280;47054;39.716;2.904;2023-05-10T01:08:19;100452.28;;;27.27
61189;BMP280;47054;39.716;2.904;2023-05-10T01:11:04;100451.50;;;27.27
61189;BMP280;47054;39.716;2.904;2023-05-10T01:13:54;100452.28;;;27.27
61189;BMP280;47054;39.716;2.904;2023-05-10T01:16:41;100453.47;;;27.26
61189;BMP280;47054;39.716;2.904;2023-05-10T01:19:29;100446.06;;;27.27
61189;BMP280;47054;39.716;2.904;2023-05-10T01:31:34;100444.56;;;27.26
61189;BMP280;47054;39.716;2.904;2023-05-10T01:37:44;100442.56;;;27.26
61189;BMP280;47054;39.716;2.904;2023-05-10T01:40:35;100446.94;;;27.24
61189;BMP280;47054;39.716;2.904;2023-05-10T01:43:33;100431.06;;;27.22
61189;BMP280;47054;39.716;2.904;2023-05-10T01:46:35;100421.25;;;27.25
61189;BMP280;47054;39.716;2.904;2023-05-10T01:49:29;100430.59;;;27.24
61189;BMP280;47054;39.716;2.904;2023-05-10T01:52:18;100429.41;;;27.25
61189;BMP280;47054;39.716;2.904;2023-05-10T01:55:15;100436.81;;;27.24
61189;BMP280;47054;39.716;2.904;2023-05-10T01:58:05;100447.72;;;27.24
61189;BMP280;47054;39.716;2.904;2023-05-10T02:00:52;100432.13;;;27.25
61189;BMP280;47054;39.716;2.904;2023-05-10T02:03:38;100432.91;;;27.25
61189;BMP280;47054;39.716;2.904;2023-05-10T02:06:25;100434.09;;;27.24
61189;BMP280;47054;39.716;2.904;2023-05-10T02:09:11;100437.59;;;27.25
61189;BMP280;47054;39.716;2.904;2023-05-10T02:11:58;100437.59;;;27.25
61189;BMP280;47054;39.716;2.904;2023-05-10T02:14:44;100437.59;;;27.25
61189;BMP280;47054;39.716;2.904;2023-05-10T02:17:31;100439.53;;;27.24
61189;BMP280;47054;39.716;2.904;2023-05-10T02:20:18;100434.09;;;27.24
61189;BMP280;47054;39.716;2.904;2023-05-10T02:23:04;100438.75;;;27.24
61189;BMP280;47054;39.716;2.904;2023-05-10T02:25:51;100429.41;;;27.25
61189;BMP280;47054;39.716;2.904;2023-05-10T02:28:38;100436.03;;;27.24
61189;BMP280;47054;39.716;2.904;2023-05-10T02:31:25;100433.31;;;27.24
61189;BMP280;47054;39.716;2.904;2023-05-10T02:34:10;100434.09;;;27.24
61189;BMP280;47054;39.716;2.904;2023-05-10T02:36:56;100433.31;;;27.24
61189;BMP280;47054;39.716;2.904;2023-05-10T02:39:42;100435.63;;;27.25
61189;BMP280;47054;39.716;2.904;2023-05-10T02:42:31;100434.88;;;27.25
61189;BMP280;47054;39.716;2.904;2023-05-10T02:45:21;100438.38;;;27.25
61189;BMP280;47054;39.716;2.904;2023-05-10T02:48:06;100433.31;;;27.24
61189;BMP280;47054;39.716;2.904;2023-05-10T02:50:52;100423.19;;;27.24
61189;BMP280;47054;39.716;2.904;2023-05-10T02:53:41;100434.09;;;27.24
61189;BMP280;47054;39.716;2.904;2023-05-10T02:56:33;100429.41;;;27.25
61189;BMP280;47054;39.716;2.904;2023-05-10T02:59:18;100427.09;;;27.23
61189;BMP280;47054;39.716;2.904;2023-05-10T03:02:03;100427.09;;;27.23
61189;BMP280;47054;39.716;2.904;2023-05-10T03:04:48;100427.88;;;27.24
61189;BMP280;47054;39.716;2.904;2023-05-10T03:07:33;100428.34;;;27.22
61189;BMP280;47054;39.716;2.904;2023-05-10T03:10:18;100424.84;;;27.22
61189;BMP280;47054;39.716;2.904;2023-05-10T03:16:16;100421.00;;;27.19
61189;BMP280;47054;39.716;2.904;2023-05-10T03:19:37;100431.81;;;27.23
61189;BMP280;47054;39.716;2.904;2023-05-10T03:22:29;100424.06;;;27.21
61189;BMP280;47054;39.716;2.904;2023-05-10T03:25:16;100430.69;;;27.20
61189;BMP280;47054;39.716;2.904;2023-05-10T03:28:03;100429.50;;;27.21
61189;BMP280;47054;39.716;2.904;2023-05-10T03:30:49;100423.31;;;27.21
61189;BMP280;47054;39.716;2.904;2023-05-10T03:33:46;100414.72;;;27.22
61189;BMP280;47054;39.716;2.904;2023-05-10T03:36:30;100418.63;;;27.21
61189;BMP280;47054;39.716;2.904;2023-05-10T03:39:15;100421.78;;;27.20
61189;BMP280;47054;39.716;2.904;2023-05-10T03:42:01;100419.81;;;27.20
61189;BMP280;47054;39.716;2.904;2023-05-10T03:44:48;100425.25;;;27.20
61189;BMP280;47054;39.716;2.904;2023-05-10T03:47:33;100423.72;;;27.19
61189;BMP280;47054;39.716;2.904;2023-05-10T03:50:18;100419.81;;;27.20
61189;BMP280;47054;39.716;2.904;2023-05-10T03:53:03;100421.78;;;27.20
61189;BMP280;47054;39.716;2.904;2023-05-10T03:55:48;100415.13;;;27.21
61189;BMP280;47054;39.716;2.904;2023-05-10T03:58:33;100410.91;;;27.20
61189;BMP280;47054;39.716;2.904;2023-05-10T04:01:17;100418.28;;;27.19
61189;BMP280;47054;39.716;2.904;2023-05-10T04:04:02;100411.63;;;27.20
61189;BMP280;47054;39.716;2.904;2023-05-10T04:06:49;100414.34;;;27.20
61189;BMP280;47054;39.716;2.904;2023-05-10T04:09:34;100412.84;;;27.19
61189;BMP280;47054;39.716;2.904;2023-05-10T04:12:18;100403.16;;;27.18
61189;BMP280;47054;39.716;2.904;2023-05-10T04:15:03;100403.16;;;27.18
61189;BMP280;47054;39.716;2.904;2023-05-10T04:17:48;100403.16;;;27.18
61189;BMP280;47054;39.716;2.904;2023-05-10T04:20:32;100397.72;;;27.18
61189;BMP280;47054;39.716;2.904;2023-05-10T04:23:17;100404.34;;;27.17
61189;BMP280;47054;39.716;2.904;2023-05-10T04:26:02;100408.59;;;27.18
61189;BMP280;47054;39.716;2.904;2023-05-10T04:28:46;100407.84;;;27.18
61189;BMP280;47054;39.716;2.904;2023-05-10T04:31:31;100410.56;;;27.18
61189;BMP280;47054;39.716;2.904;2023-05-10T04:34:15;100404.34;;;27.17
61189;BMP280;47054;39.716;2.904;2023-05-10T04:37:00;100417.19;;;27.17
61189;BMP280;47054;39.716;2.904;2023-05-10T04:39:45;100406.28;;;27.17
61189;BMP280;47054;39.716;2.904;2023-05-10T04:42:29;100406.28;;;27.17
61189;BMP280;47054;39.716;2.904;2023-05-10T04:45:14;100409.00;;;27.17
61189;BMP280;47054;39.716;2.904;2023-05-10T04:48:01;100416.00;;;27.18
61189;BMP280;47054;39.716;2.904;2023-05-10T04:50:45;100421.88;;;27.16
61189;BMP280;47054;39.716;2.904;2023-05-10T04:53:30;100425.81;;;27.15
61189;BMP280;47054;39.716;2.904;2023-05-10T04:56:14;100437.00;;;27.17
61189;BMP280;47054;39.716;2.904;2023-05-10T04:59:00;100435.94;;;27.15
61189;BMP280;47054;39.716;2.904;2023-05-10T05:01:44;100440.16;;;27.16
61189;BMP280;47054;39.716;2.904;2023-05-10T05:04:29;100449.53;;;27.15
61189;BMP280;47054;39.716;2.904;2023-05-10T05:07:15;100451.50;;;27.14
61189;BMP280;47054;39.716;2.904;2023-05-10T05:09:59;100461.19;;;27.15
61189;BMP280;47054;39.716;2.904;2023-05-10T05:12:44;100455.41;;;27.13
61189;BMP280;47054;39.716;2.904;2023-05-10T05:15:28;100465.53;;;27.13
61189;BMP280;47054;39.716;2.904;2023-05-10T05:18:14;100463.59;;;27.13
61189;BMP280;47054;39.716;2.904;2023-05-10T05:20:59;100465.09;;;27.14
61189;BMP280;47054;39.716;2.904;2023-05-10T05:23:43;100473.25;;;27.14
61189;BMP280;47054;39.716;2.904;2023-05-10T05:26:29;100470.22;;;27.12
61189;BMP280;47054;39.716;2.904;2023-05-10T05:29:14;100470.22;;;27.12
61189;BMP280;47054;39.716;2.904;2023-05-10T05:31:58;100466.31;;;27.13
61189;BMP280;47054;39.716;2.904;2023-05-10T05:34:44;100463.59;;;27.13
61189;BMP280;47054;39.716;2.904;2023-05-10T05:37:29;100462.06;;;27.12
61189;BMP280;47054;39.716;2.904;2023-05-10T05:40:14;100464.00;;;27.12
61189;BMP280;47054;39.716;2.904;2023-05-10T05:42:58;100455.84;;;27.12
61189;BMP280;47054;39.716;2.904;2023-05-10T05:45:42;100459.34;;;27.12
61189;BMP280;47054;39.716;2.904;2023-05-10T05:48:27;100455.06;;;27.11
61189;BMP280;47054;39.716;2.904;2023-05-10T05:51:13;100449.63;;;27.11
61189;BMP280;47054;39.716;2.904;2023-05-10T05:53:58;100455.84;;;27.12
61189;BMP280;47054;39.716;2.904;2023-05-10T05:56:43;100455.06;;;27.11
61189;BMP280;47054;39.716;2.904;2023-05-10T05:59:28;100468.69;;;27.11
61189;BMP280;47054;39.716;2.904;2023-05-10T06:02:13;100471.41;;;27.11
61189;BMP280;47054;39.716;2.904;2023-05-10T06:04:57;100468.69;;;27.11
61189;BMP280;47054;39.716;2.904;2023-05-10T06:07:41;100464.00;;;27.12
61189;BMP280;47054;39.716;2.904;2023-05-10T06:10:26;100479.91;;;27.13
61189;BMP280;47054;39.716;2.904;2023-05-10T06:13:10;100484.59;;;27.13
61189;BMP280;47054;39.716;2.904;2023-05-10T06:15:55;100476.41;;;27.13
61189;BMP280;47054;39.716;2.904;2023-05-10T06:18:39;100476.09;;;27.11
61189;BMP280;47054;39.716;2.904;2023-05-10T06:21:24;100490.38;;;27.15
61189;BMP280;47054;39.716;2.904;2023-05-10T06:24:09;100482.97;;;27.15
61189;BMP280;47054;39.716;2.904;2023-05-10T06:26:54;100483.38;;;27.14
61189;BMP280;47054;39.716;2.904;2023-05-10T06:29:39;100486.09;;;27.14
61189;BMP280;47054;39.716;2.904;2023-05-10T06:32:23;100479.78;;;27.17
61189;BMP280;47054;39.716;2.904;2023-05-10T06:35:08;100484.50;;;27.16
61189;BMP280;47054;39.716;2.904;2023-05-10T06:37:53;100491.44;;;27.17
61189;BMP280;47054;39.716;2.904;2023-05-10T06:40:41;100482.50;;;27.17
61189;BMP280;47054;39.716;2.904;2023-05-10T06:43:26;100483.72;;;27.16
61189;BMP280;47054;39.716;2.904;2023-05-10T06:46:12;100475.13;;;27.17
61189;BMP280;47054;39.716;2.904;2023-05-10T06:48:57;100471.63;;;27.17
61189;BMP280;47054;39.716;2.904;2023-05-10T06:51:41;100473.16;;;27.18
61189;BMP280;47054;39.716;2.904;2023-05-10T06:54:26;100474.72;;;27.19
61189;BMP280;47054;39.716;2.904;2023-05-10T06:57:10;100475.47;;;27.19
61189;BMP280;47054;39.716;2.904;2023-05-10T06:59:55;100478.97;;;27.20
61189;BMP280;47054;39.716;2.904;2023-05-10T07:02:40;100486.34;;;27.19
61189;BMP280;47054;39.716;2.904;2023-05-10T07:05:25;100484.41;;;27.20
61189;BMP280;47054;39.716;2.904;2023-05-10T07:08:12;100487.88;;;27.20
61189;BMP280;47054;39.716;2.904;2023-05-10T07:11:04;100498.34;;;27.22
61189;BMP280;47054;39.716;2.904;2023-05-10T07:13:49;100511.19;;;27.21
61189;BMP280;47054;39.716;2.904;2023-05-10T07:16:33;100507.69;;;27.21
61189;BMP280;47054;39.716;2.904;2023-05-10T07:19:18;100512.75;;;27.22
61189;BMP280;47054;39.716;2.904;2023-05-10T07:22:02;100508.47;;;27.21
61189;BMP280;47054;39.716;2.904;2023-05-10T07:24:47;100512.75;;;27.22
61189;BMP280;47054;39.716;2.904;2023-05-10T07:27:32;100518.94;;;27.23
61189;BMP280;47054;39.716;2.904;2023-05-10T07:30:17;100508.03;;;27.23
61189;BMP280;47054;39.716;2.904;2023-05-10T07:33:01;100510.75;;;27.23
61189;BMP280;47054;39.716;2.904;2023-05-10T07:35:45;100518.94;;;27.23
61189;BMP280;47054;39.716;2.904;2023-05-10T07:38:30;100516.94;;;27.23
61189;BMP280;47054;39.716;2.904;2023-05-10T07:41:15;100503.03;;;27.21
61189;BMP280;47054;39.716;2.904;2023-05-10T07:43:59;100508.03;;;27.23
61189;BMP280;47054;39.716;2.904;2023-05-10T07:46:44;100525.88;;;27.24
61189;BMP280;47054;39.716;2.904;2023-05-10T07:49:28;100517.06;;;27.20
61189;BMP280;47054;39.716;2.904;2023-05-10T07:52:13;100525.13;;;27.23
61189;BMP280;47054;39.716;2.904;2023-05-10T07:54:57;100518.94;;;27.23
61189;BMP280;47054;39.716;2.904;2023-05-10T07:57:42;100518.50;;;27.24
61189;BMP280;47054;39.716;2.904;2023-05-10T08:00:26;100507.59;;;27.24
61189;BMP280;47054;39.716;2.904;2023-05-10T08:03:11;100507.59;;;27.24
61189;BMP280;47054;39.716;2.904;2023-05-10T08:05:56;100506.06;;;27.23
61189;BMP280;47054;39.716;2.904;2023-05-10T08:08:40;100504.56;;;27.22
61189;BMP280;47054;39.716;2.904;2023-05-10T08:11:25;100508.78;;;27.23
61189;BMP280;47054;39.716;2.904;2023-05-10T08:14:12;100498.53;;;27.15
61189;BMP280;47054;39.716;2.904;2023-05-10T08:16:56;100503.34;;;27.23
61189;BMP280;47054;39.716;2.904;2023-05-10T08:19:41;100495.16;;;27.23
61189;BMP280;47054;39.716;2.904;2023-05-10T08:22:25;100489.72;;;27.23
61189;BMP280;47054;39.716;2.904;2023-05-10T08:25:10;100495.94;;;27.24
61189;BMP280;47054;39.716;2.904;2023-05-10T08:27:54;100496.72;;;27.24
61189;BMP280;47054;39.716;2.904;2023-05-10T08:30:39;100487.78;;;27.24
61189;BMP280;47054;39.716;2.904;2023-05-10T08:33:23;100487.78;;;27.24
61189;BMP280;47054;39.716;2.904;2023-05-10T08:36:08;100487.78;;;27.24
61189;BMP280;47054;39.716;2.904;2023-05-10T08:38:53;100478.44;;;27.25
61189;BMP280;47054;39.716;2.904;2023-05-10T08:41:39;100487.00;;;27.23
61189;BMP280;47054;39.716;2.904;2023-05-10T08:44:25;100483.09;;;27.24
61189;BMP280;47054;39.716;2.904;2023-05-10T08:47:10;100485.03;;;27.24
61189;BMP280;47054;39.716;2.904;2023-05-10T08:49:56;100485.81;;;27.24
61189;BMP280;47054;39.716;2.904;2023-05-10T08:52:45;100480.38;;;27.24
61189;BMP280;47054;39.716;2.904;2023-05-10T08:55:32;100493.22;;;27.24
61189;BMP280;47054;39.716;2.904;2023-05-10T08:58:19;100478.84;;;27.23
61189;BMP280;47054;39.716;2.904;2023-05-10T09:01:05;100483.09;;;27.24
61189;BMP280;47054;39.716;2.904;2023-05-10T09:03:50;100491.28;;;27.24
61189;BMP280;47054;39.716;2.904;2023-05-10T09:06:35;100487.00;;;27.23
61189;BMP280;47054;39.716;2.904;2023-05-10T09:09:20;100478.84;;;27.23
61189;BMP280;47054;39.716;2.904;2023-05-10T09:12:06;100490.50;;;27.24
61189;BMP280;47054;39.716;2.904;2023-05-10T09:14:55;100478.84;;;27.23
61189;BMP280;47054;39.716;2.904;2023-05-10T09:17:41;100481.56;;;27.23
61189;BMP280;47054;39.716;2.904;2023-05-10T09:20:26;100477.34;;;27.22
61189;BMP280;47054;39.716;2.904;2023-05-10T09:23:11;100476.56;;;27.22
61189;BMP280;47054;39.716;2.904;2023-05-10T09:26:05;100488.97;;;27.23
61189;BMP280;47054;39.716;2.904;2023-05-10T09:28:54;100481.25;;;27.21
61189;BMP280;47054;39.716;2.904;2023-05-10T09:31:47;100476.88;;;27.24
61189;BMP280;47054;39.716;2.904;2023-05-10T09:34:32;100492.13;;;27.21
61189;BMP280;47054;39.716;2.904;2023-05-10T09:37:29;100490.97;;;27.22
61189;BMP280;47054;39.716;2.904;2023-05-10T09:43:04;100500.31;;;27.21
61189;BMP280;47054;39.716;2.904;2023-05-10T09:45:50;100500.31;;;27.21
61189;BMP280;47054;39.716;2.904;2023-05-10T09:48:34;100504.19;;;27.20
61189;BMP280;47054;39.716;2.904;2023-05-10T09:51:20;100509.66;;;27.20
61189;BMP280;47054;39.716;2.904;2023-05-10T09:56:53;100503.47;;;27.20
61189;BMP280;47054;39.716;2.904;2023-05-10T09:59:42;100505.75;;;27.21
61189;BMP280;47054;39.716;2.904;2023-05-10T10:02:30;100494.09;;;27.21
61189;BMP280;47054;39.716;2.904;2023-05-10T10:05:15;100497.25;;;27.19
61189;BMP280;47054;39.716;2.904;2023-05-10T10:08:03;100496.03;;;27.20
61189;BMP280;47054;39.716;2.904;2023-05-10T10:10:48;100505.41;;;27.19
61189;BMP280;47054;39.716;2.904;2023-05-10T10:13:34;100504.66;;;27.19
61189;BMP280;47054;39.716;2.904;2023-05-10T10:16:20;100501.16;;;27.18
61189;BMP280;47054;39.716;2.904;2023-05-10T10:19:06;100507.69;;;27.21
61189;BMP280;47054;39.716;2.904;2023-05-10T10:21:51;100498.44;;;27.18
61189;BMP280;47054;39.716;2.904;2023-05-10T10:24:35;100505.41;;;27.19
61189;BMP280;47054;39.716;2.904;2023-05-10T10:27:26;100496.03;;;27.20
61189;BMP280;47054;39.716;2.904;2023-05-10T10:33:48;100496.50;;;27.19
61189;BMP280;47054;39.716;2.904;2023-05-10T10:36:42;100495.38;;;27.16
61189;BMP280;47054;39.716;2.904;2023-05-10T10:39:27;100496.13;;;27.17
61189;BMP280;47054;39.716;2.904;2023-05-10T10:42:12;100487.22;;;27.16
61189;BMP280;47054;39.716;2.904;2023-05-10T10:45:15;100494.53;;;27.19
61189;BMP280;47054;39.716;2.904;2023-05-10T10:48:19;100493.00;;;27.18
61189;BMP280;47054;39.716;2.904;2023-05-10T10:51:04;100499.31;;;27.15
61189;BMP280;47054;39.716;2.904;2023-05-10T10:53:48;100492.66;;;27.16
61189;BMP280;47054;39.716;2.904;2023-05-10T10:56:33;100487.22;;;27.16
61189;BMP280;47054;39.716;2.904;2023-05-10T10:59:26;100487.56;;;27.18
61189;BMP280;47054;39.716;2.904;2023-05-10T11:02:34;100484.84;;;27.18
61189;BMP280;47054;39.716;2.904;2023-05-10T11:08:39;100463.06;;;27.18
61189;BMP280;47054;39.716;2.904;2023-05-10T11:11:26;100466.66;;;27.15
61189;BMP280;47054;39.716;2.904;2023-05-10T11:14:10;100466.66;;;27.15
61189;BMP280;47054;39.716;2.904;2023-05-10T11:16:55;100466.31;;;27.13
61189;BMP280;47054;39.716;2.904;2023-05-10T11:20:17;100469.28;;;27.19
61189;BMP280;47054;39.716;2.904;2023-05-10T11:23:12;100467.38;;;27.16
61189;BMP280;47054;39.716;2.904;2023-05-10T11:26:00;100463.94;;;27.15
61189;BMP280;47054;39.716;2.904;2023-05-10T11:28:51;100457.69;;;27.15
61189;BMP280;47054;39.716;2.904;2023-05-10T11:31:42;100457.69;;;27.15
61189;BMP280;47054;39.716;2.904;2023-05-10T11:34:30;100450.72;;;27.14
61189;BMP280;47054;39.716;2.904;2023-05-10T11:37:14;100449.53;;;27.15
61189;BMP280;47054;39.716;2.904;2023-05-10T11:39:59;100455.75;;;27.15
61189;BMP280;47054;39.716;2.904;2023-05-10T11:42:44;100444.09;;;27.15
61189;BMP280;47054;39.716;2.904;2023-05-10T11:45:32;100436.69;;;27.15
61189;BMP280;47054;39.716;2.904;2023-05-10T11:48:16;100437.44;;;27.16
61189;BMP280;47054;39.716;2.904;2023-05-10T11:51:10;100429.63;;;27.18
61189;BMP280;47054;39.716;2.904;2023-05-10T11:53:56;100425.81;;;27.15
61189;BMP280;47054;39.716;2.904;2023-05-10T11:56:41;100427.31;;;27.16
61189;BMP280;47054;39.716;2.904;2023-05-10T11:59:26;100431.25;;;27.15
61189;BMP280;47054;39.716;2.904;2023-05-10T12:02:11;100435.50;;;27.16
61189;BMP280;47054;39.716;2.904;2023-05-10T12:04:56;100434.72;;;27.16
61189;BMP280;47054;39.716;2.904;2023-05-10T12:07:41;100432.00;;;27.16
61189;BMP280;47054;39.716;2.904;2023-05-10T12:10:26;100425.34;;;27.17
61189;BMP280;47054;39.716;2.904;2023-05-10T12:13:12;100423.41;;;27.17
61189;BMP280;47054;39.716;2.904;2023-05-10T12:15:58;100426.88;;;27.18
61189;BMP280;47054;39.716;2.904;2023-05-10T12:18:44;100419.16;;;27.16
61189;BMP280;47054;39.716;2.904;2023-05-10T12:21:29;100416.78;;;27.18
61189;BMP280;47054;39.716;2.904;2023-05-10T12:24:16;100423.41;;;27.17
61189;BMP280;47054;39.716;2.904;2023-05-10T12:27:05;100424.16;;;27.18
61189;BMP280;47054;39.716;2.904;2023-05-10T12:29:52;100422.63;;;27.17
61189;BMP280;47054;39.716;2.904;2023-05-10T12:32:40;100434.28;;;27.17
61189;BMP280;47054;39.716;2.904;2023-05-10T12:35:25;100431.56;;;27.17
61189;BMP280;47054;39.716;2.904;2023-05-10T12:41:18;100425.34;;;27.17
61189;BMP280;47054;39.716;2.904;2023-05-10T12:44:03;100439.72;;;27.17
61189;BMP280;47054;39.716;2.904;2023-05-10T12:46:47;100445.19;;;27.17
61189;BMP280;47054;39.716;2.904;2023-05-10T12:49:32;100440.16;;;27.16
61189;BMP280;47054;39.716;2.904;2023-05-10T12:52:17;100442.16;;;27.15
61189;BMP280;47054;39.716;2.904;2023-05-10T12:55:01;100433.50;;;27.17
61189;BMP280;47054;39.716;2.904;2023-05-10T12:57:47;100441.69;;;27.17
61189;BMP280;47054;39.716;2.904;2023-05-10T13:00:31;100442.44;;;27.17
61189;BMP280;47054;39.716;2.904;2023-05-10T13:03:16;100431.56;;;27.17
61189;BMP280;47054;39.716;2.904;2023-05-10T13:06:00;100428.84;;;27.17
61189;BMP280;47054;39.716;2.904;2023-05-10T13:08:45;100438.56;;;27.18
61189;BMP280;47054;39.716;2.904;2023-05-10T13:11:29;100439.72;;;27.17
61189;BMP280;47054;39.716;2.904;2023-05-10T13:14:14;100437.88;;;27.14
61189;BMP280;47054;39.716;2.904;2023-05-10T13:16:58;100438.97;;;27.17
61189;BMP280;47054;39.716;2.904;2023-05-10T13:19:43;100435.81;;;27.18
61189;BMP280;47054;39.716;2.904;2023-05-10T13:22:27;100437.34;;;27.19
61189;BMP280;47054;39.716;2.904;2023-05-10T13:25:12;100437.34;;;27.19
61189;BMP280;47054;39.716;2.904;2023-05-10T13:27:57;100431.91;;;27.19
61189;BMP280;47054;39.716;2.904;2023-05-10T13:30:41;100431.16;;;27.19
61189;BMP280;47054;39.716;2.904;2023-05-10T13:33:26;100424.16;;;27.18
61189;BMP280;47054;39.716;2.904;2023-05-10T13:36:11;100426.47;;;27.19
61189;BMP280;47054;39.716;2.904;2023-05-10T13:38:55;100428.44;;;27.19
61189;BMP280;47054;39.716;2.904;2023-05-10T13:41:40;100424.94;;;27.18
61189;BMP280;47054;39.716;2.904;2023-05-10T13:44:25;100424.94;;;27.18
61189;BMP280;47054;39.716;2.904;2023-05-10T13:47:10;100425.72;;;27.19
61189;BMP280;47054;39.716;2.904;2023-05-10T13:49:55;100422.22;;;27.18
61189;BMP280;47054;39.716;2.904;2023-05-10T13:52:41;100412.19;;;27.15
61189;BMP280;47054;39.716;2.904;2023-05-10T13:55:25;100421.44;;;27.18
61189;BMP280;47054;39.716;2.904;2023-05-10T13:58:10;100420.28;;;27.19
61189;BMP280;47054;39.716;2.904;2023-05-10T14:00:55;100421.78;;;27.20
61189;BMP280;47054;39.716;2.904;2023-05-10T14:03:40;100410.56;;;27.18
61189;BMP280;47054;39.716;2.904;2023-05-10T14:06:24;100407.06;;;27.17
61189;BMP280;47054;39.716;2.904;2023-05-10T14:09:09;100400.44;;;27.18
61189;BMP280;47054;39.716;2.904;2023-05-10T14:11:53;100408.16;;;27.20
61189;BMP280;47054;39.716;2.904;2023-05-10T14:14:38;100401.94;;;27.19
61189;BMP280;47054;39.716;2.904;2023-05-10T14:17:22;100399.22;;;27.19
61189;BMP280;47054;39.716;2.904;2023-05-10T14:20:08;100400.00;;;27.20
61189;BMP280;47054;39.716;2.904;2023-05-10T14:22:53;100403.47;;;27.20
61189;BMP280;47054;39.716;2.904;2023-05-10T14:25:40;100400.75;;;27.20
61189;BMP280;47054;39.716;2.904;2023-05-10T14:28:25;100400.00;;;27.20
61189;BMP280;47054;39.716;2.904;2023-05-10T14:31:09;100400.75;;;27.20
61189;BMP280;47054;39.716;2.904;2023-05-10T14:33:54;100393.78;;;27.19
61189;BMP280;47054;39.716;2.904;2023-05-10T14:36:57;100396.50;;;27.19
61189;BMP280;47054;39.716;2.904;2023-05-10T14:39:41;100389.13;;;27.20
61189;BMP280;47054;39.716;2.904;2023-05-10T14:42:27;100394.56;;;27.20
61189;BMP280;47054;39.716;2.904;2023-05-10T14:45:12;100395.31;;;27.20
61189;BMP280;47054;39.716;2.904;2023-05-10T14:47:57;100397.28;;;27.20
61189;BMP280;47054;39.716;2.904;2023-05-10T14:50:43;100387.91;;;27.21
61189;BMP280;47054;39.716;2.904;2023-05-10T14:53:28;100389.13;;;27.20
61189;BMP280;47054;39.716;2.904;2023-05-10T14:56:12;100387.13;;;27.20
61189;BMP280;47054;39.716;2.904;2023-05-10T14:58:56;100402.28;;;27.21
61189;BMP280;47054;39.716;2.904;2023-05-10T15:01:41;100389.56;;;27.18
61189;BMP280;47054;39.716;2.904;2023-05-10T15:04:26;100400.34;;;27.22
61189;BMP280;47054;39.716;2.904;2023-05-10T15:07:11;100404.25;;;27.21
61189;BMP280;47054;39.716;2.904;2023-05-10T15:09:58;100391.41;;;27.21
61189;BMP280;47054;39.716;2.904;2023-05-10T15:12:43;100383.25;;;27.21
61189;BMP280;47054;39.716;2.904;2023-05-10T15:15:27;100388.69;;;27.21
61189;BMP280;47054;39.716;2.904;2023-05-10T15:18:12;100395.66;;;27.22
61189;BMP280;47054;39.716;2.904;2023-05-10T15:20:56;100385.97;;;27.21
61189;BMP280;47054;39.716;2.904;2023-05-10T15:23:42;100378.56;;;27.22
61189;BMP280;47054;39.716;2.904;2023-05-10T15:26:27;100381.28;;;27.22
61189;BMP280;47054;39.716;2.904;2023-05-10T15:29:12;100372.34;;;27.21
61189;BMP280;47054;39.716;2.904;2023-05-10T15:32:03;100367.66;;;27.22
61189;BMP280;47054;39.716;2.904;2023-05-10T15:34:48;100369.94;;;27.23
61189;BMP280;47054;39.716;2.904;2023-05-10T15:37:32;100365.72;;;27.22
61189;BMP280;47054;39.716;2.904;2023-05-10T15:40:17;100366.47;;;27.23
61189;BMP280;47054;39.716;2.904;2023-05-10T15:43:01;100369.94;;;27.23
61189;BMP280;47054;39.716;2.904;2023-05-10T15:45:46;100368.53;;;27.19
61189;BMP280;47054;39.716;2.904;2023-05-10T15:48:31;100367.19;;;27.23
61189;BMP280;47054;39.716;2.904;2023-05-10T15:51:15;100355.13;;;27.24
61189;BMP280;47054;39.716;2.904;2023-05-10T15:54:00;100359.81;;;27.24
61189;BMP280;47054;39.716;2.904;2023-05-10T15:56:45;100371.47;;;27.24
61189;BMP280;47054;39.716;2.904;2023-05-10T15:59:31;100362.13;;;27.25
61189;BMP280;47054;39.716;2.904;2023-05-10T16:02:16;100367.56;;;27.25
61189;BMP280;47054;39.716;2.904;2023-05-10T16:05:03;100360.59;;;27.24
61189;BMP280;47054;39.716;2.904;2023-05-10T16:07:48;100364.47;;;27.23
61189;BMP280;47054;39.716;2.904;2023-05-10T16:10:32;100365.25;;;27.24
61189;BMP280;47054;39.716;2.904;2023-05-10T16:13:17;100364.94;;;27.22
61189;BMP280;47054;39.716;2.904;2023-05-10T16:16:01;100376.16;;;27.24